createdAt,value
2022-08-19T00:01:26.287Z,7.28
2022-08-19T00:04:00.175Z,8.50
2022-08-19T00:06:27.625Z,8.27
2022-08-19T00:08:54.023Z,7.75
2022-08-19T00:11:26.084Z,7.65
2022-08-19T00:13:52.673Z,7.60
2022-08-19T00:16:20.177Z,7.45
2022-08-19T00:18:52.232Z,8.20
2022-08-19T00:21:18.900Z,7.97
2022-08-19T00:23:45.153Z,8.13
2022-08-19T00:26:11.777Z,8.15
2022-08-19T00:28:38.268Z,8.70
2022-08-19T00:31:05.429Z,8.80
2022-08-19T00:33:35.133Z,8.63
2022-08-19T00:36:02.211Z,7.82
2022-08-19T00:38:34.975Z,8.48
2022-08-19T00:41:04.554Z,7.57
2022-08-19T00:43:30.877Z,7.82
2022-08-19T00:45:57.159Z,8.00
2022-08-19T00:48:24.329Z,8.43
2022-08-19T00:50:52.199Z,8.00
2022-08-19T00:53:20.118Z,8.48
2022-08-19T00:55:47.517Z,8.82
2022-08-19T00:58:19.416Z,8.23
2022-08-19T01:00:46.339Z,8.32
2022-08-19T01:03:14.009Z,8.07
2022-08-19T01:05:41.817Z,7.95
2022-08-19T01:08:08.535Z,8.45
2022-08-19T01:10:37.948Z,8.40
2022-08-19T01:13:04.825Z,8.50
2022-08-19T01:15:33.154Z,8.30
2022-08-19T01:18:02.016Z,7.82
2022-08-19T01:20:28.274Z,8.20
2022-08-19T01:22:56.109Z,8.50
2022-08-19T01:25:29.272Z,8.55
2022-08-19T01:27:56.498Z,7.93
2022-08-19T01:30:31.105Z,8.15
2022-08-19T01:32:57.924Z,8.77
2022-08-19T01:35:25.145Z,8.95
2022-08-19T01:37:55.810Z,9.02
2022-08-19T01:40:24.148Z,8.17
2022-08-19T01:42:50.875Z,8.30
2022-08-19T01:45:18.201Z,8.07
2022-08-19T01:47:44.493Z,8.40
2022-08-19T01:50:22.294Z,8.20
2022-08-19T01:52:50.507Z,8.90
2022-08-19T01:55:30.356Z,8.55
2022-08-19T01:57:58.967Z,8.68
2022-08-19T02:00:26.497Z,9.10
2022-08-19T02:02:52.877Z,9.68
2022-08-19T02:05:21.913Z,9.05
2022-08-19T02:07:48.645Z,8.85
2022-08-19T02:10:17.118Z,8.93
2022-08-19T02:12:43.518Z,8.52
2022-08-19T02:15:10.436Z,8.95
2022-08-19T02:17:36.866Z,9.23
2022-08-19T02:20:04.114Z,9.40
2022-08-19T02:22:30.405Z,9.57
2022-08-19T02:24:56.690Z,9.35
2022-08-19T02:27:23.301Z,9.82
2022-08-19T02:29:50.200Z,9.38
2022-08-19T02:32:16.731Z,9.18
2022-08-19T02:34:43.012Z,9.00
2022-08-19T02:37:29.307Z,9.27
2022-08-19T02:39:55.656Z,10.60
2022-08-19T02:42:22.075Z,10.25
2022-08-19T02:44:48.415Z,10.38
2022-08-19T02:47:15.912Z,11.52
2022-08-19T02:49:42.543Z,10.65
2022-08-19T02:52:09.137Z,10.80
2022-08-19T02:54:35.509Z,11.05
2022-08-19T02:57:01.756Z,10.07
2022-08-19T02:59:30.604Z,9.90
2022-08-19T03:01:57.004Z,11.10
2022-08-19T03:04:23.976Z,10.23
2022-08-19T03:06:50.314Z,10.27
2022-08-19T03:09:17.411Z,9.90
2022-08-19T03:11:43.915Z,10.52
2022-08-19T03:14:10.964Z,10.65
2022-08-19T03:16:45.052Z,10.50
2022-08-19T03:19:11.347Z,9.95
2022-08-19T03:21:37.650Z,10.63
2022-08-19T03:24:06.382Z,10.60
2022-08-19T03:26:32.712Z,10.48
2022-08-19T03:29:02.275Z,10.38
2022-08-19T03:31:44.494Z,9.65
2022-08-19T03:34:19.626Z,11.27
2022-08-19T03:36:46.527Z,10.13
2022-08-19T03:39:13.229Z,10.35
2022-08-19T03:41:45.075Z,11.55
2022-08-19T03:44:17.926Z,11.48
2022-08-19T03:46:45.402Z,10.90
2022-08-19T03:49:11.797Z,10.40
2022-08-19T03:51:42.402Z,11.25
2022-08-19T03:54:09.712Z,11.18
2022-08-19T03:56:37.652Z,11.07
2022-08-19T03:59:05.600Z,11.52
2022-08-19T04:01:35.186Z,12.20
2022-08-19T04:04:02.218Z,11.57
2022-08-19T04:06:31.192Z,11.35
2022-08-19T04:08:59.223Z,11.98
2022-08-19T04:11:44.006Z,10.77
2022-08-19T04:14:12.488Z,10.35
2022-08-19T04:16:38.801Z,9.98
2022-08-19T04:19:05.709Z,12.10
2022-08-19T04:21:32.029Z,12.30
2022-08-19T04:23:58.717Z,12.93
2022-08-19T04:26:27.348Z,11.50
2022-08-19T04:28:55.194Z,11.38
2022-08-19T04:31:28.983Z,13.75
2022-08-19T04:33:59.045Z,13.25
2022-08-19T04:36:26.570Z,13.00
2022-08-19T04:38:57.125Z,14.05
2022-08-19T04:41:42.519Z,13.95
2022-08-19T04:44:08.815Z,14.73
2022-08-19T04:46:40.132Z,14.88
2022-08-19T04:49:17.984Z,14.43
2022-08-19T04:51:46.595Z,13.70
2022-08-19T04:54:13.129Z,13.77
2022-08-19T04:56:40.268Z,12.90
2022-08-19T04:59:06.740Z,13.38
2022-08-19T05:01:33.855Z,13.75
2022-08-19T05:04:01.654Z,13.07
2022-08-19T05:06:29.554Z,13.55
2022-08-19T05:08:55.857Z,13.77
2022-08-19T05:11:26.582Z,14.25
2022-08-19T05:13:53.145Z,15.52
2022-08-19T05:16:20.776Z,13.85
2022-08-19T05:19:06.328Z,15.88
2022-08-19T05:21:51.199Z,17.00
2022-08-19T05:24:19.605Z,18.35
2022-08-19T05:26:47.322Z,18.70
2022-08-19T05:29:15.102Z,20.25
2022-08-19T05:31:41.638Z,20.95
2022-08-19T05:34:08.199Z,22.30
2022-08-19T05:36:46.824Z,22.45
2022-08-19T05:39:15.694Z,24.40
2022-08-19T05:41:45.448Z,24.40
2022-08-19T05:44:11.945Z,21.73
2022-08-19T05:46:39.069Z,24.63
2022-08-19T05:49:06.650Z,25.55
2022-08-19T05:51:35.001Z,24.00
2022-08-19T05:54:01.920Z,27.48
2022-08-19T05:56:28.320Z,24.67
2022-08-19T05:58:55.051Z,24.15
2022-08-19T06:01:22.403Z,26.52
2022-08-19T06:03:48.714Z,25.98
2022-08-19T06:06:15.965Z,25.65
2022-08-19T06:08:43.827Z,23.55
2022-08-19T06:11:15.067Z,25.83
2022-08-19T06:13:41.452Z,26.45
2022-08-19T06:16:07.752Z,22.75
2022-08-19T06:18:34.307Z,24.27
2022-08-19T06:21:01.179Z,23.67
2022-08-19T06:23:27.419Z,23.60
2022-08-19T06:25:53.653Z,25.30
2022-08-19T06:28:20.165Z,24.73
2022-08-19T06:30:46.520Z,25.40
2022-08-19T06:33:12.811Z,23.20
2022-08-19T06:35:39.992Z,24.85
2022-08-19T06:38:06.311Z,24.27
2022-08-19T06:40:32.582Z,22.92
2022-08-19T06:43:01.262Z,24.08
2022-08-19T06:45:34.885Z,25.15
2022-08-19T06:48:05.616Z,21.45
2022-08-19T06:50:31.863Z,22.52
2022-08-19T06:52:58.181Z,21.15
2022-08-19T06:55:31.616Z,23.88
2022-08-19T06:58:02.254Z,21.08
2022-08-19T07:00:28.613Z,20.20
2022-08-19T07:02:59.504Z,21.08
2022-08-19T07:05:27.232Z,20.88
2022-08-19T07:07:53.817Z,20.30
2022-08-19T07:10:24.003Z,19.00
2022-08-19T07:12:52.552Z,18.48
2022-08-19T07:15:19.028Z,20.77
2022-08-19T07:17:45.294Z,23.52
2022-08-19T07:20:15.235Z,23.85
2022-08-19T07:22:45.628Z,23.23
2022-08-19T07:25:14.100Z,22.85
2022-08-19T07:27:40.344Z,22.13
2022-08-19T07:30:07.518Z,23.98
2022-08-19T07:35:05.498Z,22.35
2022-08-19T07:37:33.339Z,20.48
2022-08-19T07:40:00.515Z,25.15
2022-08-19T07:42:27.532Z,26.25
2022-08-19T07:44:53.790Z,24.98
2022-08-19T07:47:49.887Z,26.63
2022-08-19T07:50:08.804Z,28.30
2022-08-19T07:52:37.165Z,30.17
2022-08-19T07:55:04.826Z,28.77
2022-08-19T07:57:31.243Z,29.80
2022-08-19T07:59:57.588Z,30.42
2022-08-19T08:02:24.003Z,29.15
2022-08-19T08:05:09.173Z,29.08
2022-08-19T08:07:54.452Z,27.23
2022-08-19T08:10:24.452Z,31.23
2022-08-19T08:13:09.382Z,28.92
2022-08-19T08:15:42.204Z,28.73
2022-08-19T08:18:10.046Z,27.52
2022-08-19T08:20:36.280Z,27.50
2022-08-19T08:23:21.481Z,26.15
2022-08-19T08:25:49.390Z,26.45
2022-08-19T08:28:17.685Z,25.77
2022-08-19T08:30:46.525Z,24.90
2022-08-19T08:33:13.072Z,22.55
2022-08-19T08:35:42.722Z,23.02
2022-08-19T08:38:09.043Z,26.35
2022-08-19T08:40:39.790Z,26.48
2022-08-19T08:43:26.416Z,24.35
2022-08-19T08:46:02.274Z,27.02
2022-08-19T08:48:35.480Z,25.08
2022-08-19T08:51:04.276Z,29.00
2022-08-19T08:53:34.402Z,27.90
2022-08-19T08:56:03.196Z,27.15
2022-08-19T08:58:42.767Z,26.95
2022-08-19T09:01:12.349Z,27.35
2022-08-19T09:03:40.280Z,24.90
2022-08-19T09:06:27.990Z,23.73
2022-08-19T09:09:04.778Z,24.13
2022-08-19T09:11:45.160Z,24.08
2022-08-19T09:14:49.176Z,23.13
2022-08-19T09:17:15.144Z,22.05
2022-08-19T09:19:58.414Z,21.60
2022-08-19T09:22:26.018Z,20.77
2022-08-19T09:24:54.145Z,21.48
2022-08-19T09:27:21.748Z,21.90
2022-08-19T09:29:49.833Z,20.27
2022-08-19T09:32:26.219Z,18.90
2022-08-19T09:34:56.290Z,20.23
2022-08-19T09:37:23.274Z,20.00
2022-08-19T09:39:51.651Z,18.27
2022-08-19T09:42:29.787Z,17.23
2022-08-19T09:44:56.866Z,17.40
2022-08-19T09:47:25.690Z,18.42
2022-08-19T09:49:51.917Z,17.15
2022-08-19T09:52:18.904Z,16.80
2022-08-19T09:54:45.189Z,15.23
2022-08-19T09:57:18.354Z,16.60
2022-08-19T09:59:45.835Z,16.70
2022-08-19T10:02:12.904Z,15.60
2022-08-19T10:04:57.821Z,14.23
2022-08-19T10:07:28.808Z,11.77
2022-08-19T10:10:03.958Z,11.77
2022-08-19T10:12:30.204Z,11.48
2022-08-19T10:14:57.146Z,11.43
2022-08-19T10:17:26.785Z,10.77
2022-08-19T10:19:57.819Z,12.00
2022-08-19T10:22:25.773Z,10.75
2022-08-19T10:24:53.315Z,10.93
2022-08-19T10:27:19.584Z,11.02
2022-08-19T10:29:46.504Z,13.07
2022-08-19T10:32:12.958Z,13.05
2022-08-19T10:34:48.968Z,12.55
2022-08-19T10:37:28.927Z,11.88
2022-08-19T10:39:57.510Z,11.20
2022-08-19T10:42:23.801Z,11.35
2022-08-19T10:44:52.010Z,13.25
2022-08-19T10:47:24.711Z,13.80
2022-08-19T10:50:11.812Z,12.55
2022-08-19T10:52:39.050Z,14.18
2022-08-19T10:55:25.560Z,13.40
2022-08-19T10:58:03.092Z,15.48
2022-08-19T11:00:29.981Z,12.68
2022-08-19T11:02:56.660Z,12.88
2022-08-19T11:05:24.317Z,11.98
2022-08-19T11:07:52.289Z,12.95
2022-08-19T11:10:21.773Z,11.50
2022-08-19T11:12:49.022Z,12.02
2022-08-19T11:15:15.369Z,9.63
2022-08-19T11:17:42.428Z,10.10
2022-08-19T11:20:09.665Z,9.95
2022-08-19T11:22:39.001Z,9.68
2022-08-19T11:25:08.293Z,10.88
2022-08-19T11:27:34.602Z,10.63
2022-08-19T11:30:01.618Z,10.68
2022-08-19T11:32:28.074Z,10.27
2022-08-19T11:34:55.322Z,10.30
2022-08-19T11:37:21.560Z,10.65
2022-08-19T11:39:51.851Z,10.57
2022-08-19T11:42:38.971Z,9.95
2022-08-19T11:45:05.384Z,11.02
2022-08-19T11:47:31.636Z,9.70
2022-08-19T11:49:58.064Z,9.98
2022-08-19T11:52:24.298Z,10.73
2022-08-19T11:54:50.601Z,10.05
2022-08-19T11:57:17.951Z,10.30
2022-08-19T11:59:48.963Z,10.57
2022-08-19T12:02:16.300Z,9.18
2022-08-19T12:04:42.625Z,11.20
2022-08-19T12:07:08.895Z,10.30
2022-08-19T12:09:35.392Z,8.93
2022-08-19T12:12:02.781Z,10.00
2022-08-19T12:14:31.021Z,9.60
2022-08-19T12:16:57.502Z,9.13
2022-08-19T12:19:25.416Z,10.18
2022-08-19T12:21:53.852Z,8.63
2022-08-19T12:24:24.401Z,8.70
2022-08-19T12:26:53.477Z,8.48
2022-08-19T12:29:23.746Z,8.88
2022-08-19T12:31:50.394Z,9.70
2022-08-19T12:34:16.852Z,8.82
2022-08-19T12:36:43.100Z,9.43
2022-08-19T12:39:09.348Z,9.18
2022-08-19T12:41:38.207Z,8.50
2022-08-19T12:44:17.805Z,8.93
2022-08-19T12:46:46.233Z,8.60
2022-08-19T12:49:24.523Z,9.00
2022-08-19T12:51:59.095Z,9.13
2022-08-19T12:54:25.374Z,9.48
2022-08-19T12:56:51.645Z,9.00
2022-08-19T12:59:18.940Z,8.93
2022-08-19T13:01:45.771Z,8.27
2022-08-19T13:04:12.185Z,8.63
2022-08-19T13:06:38.599Z,7.72
2022-08-19T13:09:05.428Z,8.35
2022-08-19T13:11:33.840Z,7.88
2022-08-19T13:14:00.646Z,7.65
2022-08-19T13:16:28.595Z,7.15
2022-08-19T13:18:55.769Z,6.97
2022-08-19T13:21:24.145Z,7.82
2022-08-19T13:23:50.816Z,6.78
2022-08-19T13:26:17.112Z,7.22
2022-08-19T13:29:02.504Z,6.65
2022-08-19T13:31:52.913Z,6.95
2022-08-19T13:34:20.691Z,6.78
2022-08-19T13:36:47.011Z,7.40
2022-08-19T13:39:13.333Z,8.25
2022-08-19T13:41:43.784Z,7.47
2022-08-19T13:44:10.031Z,7.50
2022-08-19T13:46:36.246Z,7.35
2022-08-19T13:49:02.503Z,7.68
2022-08-19T13:51:28.749Z,7.18
2022-08-19T13:53:56.217Z,7.38
2022-08-19T13:56:26.107Z,7.30
2022-08-19T13:58:52.903Z,7.30
2022-08-19T14:01:20.250Z,5.95
2022-08-19T14:03:50.767Z,6.50
2022-08-19T14:06:17.643Z,6.82
2022-08-19T14:08:46.253Z,6.70
2022-08-19T14:11:12.910Z,8.27
2022-08-19T14:13:39.636Z,6.90
2022-08-19T14:16:12.785Z,7.43
2022-08-19T14:18:39.380Z,6.97
2022-08-19T14:21:05.819Z,6.45
2022-08-19T14:23:32.903Z,6.90
2022-08-19T14:26:06.329Z,6.93
2022-08-19T14:28:32.616Z,7.32
2022-08-19T14:30:58.851Z,6.63
2022-08-19T14:33:28.329Z,6.60
2022-08-19T14:35:59.674Z,6.43
2022-08-19T14:38:31.285Z,6.55
2022-08-19T14:41:08.611Z,6.50
2022-08-19T14:43:35.173Z,5.50
2022-08-19T14:46:01.471Z,5.70
2022-08-19T14:48:29.118Z,4.97
2022-08-19T14:50:55.530Z,5.25
2022-08-19T14:53:22.519Z,4.65
2022-08-19T14:55:48.752Z,4.78
2022-08-19T14:58:29.058Z,4.53
2022-08-19T15:00:57.122Z,4.30
2022-08-19T15:03:23.374Z,4.75
2022-08-19T15:05:49.641Z,4.25
2022-08-19T15:08:15.914Z,4.70
2022-08-19T15:10:42.170Z,4.22
2022-08-19T15:13:08.940Z,4.25
2022-08-19T15:15:35.894Z,4.20
2022-08-19T15:18:03.473Z,4.30
2022-08-19T15:20:30.063Z,4.38
2022-08-19T15:22:56.420Z,4.15
2022-08-19T15:25:22.705Z,3.92
2022-08-19T15:27:49.009Z,3.47
2022-08-19T15:30:20.052Z,3.80
2022-08-19T15:32:49.097Z,3.55
2022-08-19T15:35:15.545Z,3.53
2022-08-19T15:37:41.956Z,3.50
2022-08-19T15:40:09.437Z,3.10
2022-08-19T15:42:37.267Z,3.30
2022-08-19T15:45:06.791Z,3.80
2022-08-19T15:47:34.715Z,3.13
2022-08-19T15:50:10.563Z,3.50
2022-08-19T15:52:37.589Z,3.63
2022-08-19T15:55:21.319Z,3.33
2022-08-19T15:58:21.844Z,3.20
2022-08-19T16:01:14.749Z,3.58
2022-08-19T16:03:59.801Z,3.60
2022-08-19T16:06:26.029Z,3.55
2022-08-19T16:09:03.532Z,3.38
2022-08-19T16:11:31.436Z,3.58
2022-08-19T16:13:59.107Z,3.72
2022-08-19T16:16:33.943Z,3.45
2022-08-19T16:19:01.303Z,3.42
2022-08-19T16:21:32.332Z,3.05
2022-08-19T16:24:02.961Z,3.38
2022-08-19T16:26:30.766Z,3.08
2022-08-19T16:28:59.145Z,2.78
2022-08-19T16:31:25.840Z,2.40
2022-08-19T16:33:52.515Z,3.13
2022-08-19T16:36:18.975Z,2.67
2022-08-19T16:38:49.306Z,2.55
2022-08-19T16:41:15.819Z,2.28
2022-08-19T16:43:42.276Z,2.22
2022-08-19T16:46:09.244Z,2.40
2022-08-19T16:48:36.154Z,2.00
2022-08-19T16:51:08.512Z,2.33
2022-08-19T16:53:35.386Z,2.05
2022-08-19T16:56:01.739Z,2.40
2022-08-19T16:58:29.419Z,2.20
2022-08-19T17:00:59.599Z,2.30
2022-08-19T17:03:36.742Z,2.03
2022-08-19T17:06:07.996Z,2.40
2022-08-19T17:08:48.484Z,2.22
2022-08-19T17:11:18.470Z,2.15
2022-08-19T17:13:45.504Z,2.37
2022-08-19T17:16:14.693Z,2.13
2022-08-19T17:18:41.058Z,2.40
2022-08-19T17:21:07.316Z,2.60
2022-08-19T17:23:43.208Z,2.35
2022-08-19T17:26:16.758Z,2.80
2022-08-19T17:28:44.868Z,3.08
2022-08-19T17:31:11.232Z,2.70
2022-08-19T17:33:41.281Z,2.90
2022-08-19T17:36:08.069Z,2.67
2022-08-19T17:38:35.701Z,2.78
2022-08-19T17:41:05.360Z,3.20
2022-08-19T17:43:38.911Z,3.15
2022-08-19T17:46:11.031Z,2.88
2022-08-19T17:48:40.657Z,2.83
2022-08-19T17:51:33.422Z,2.90
2022-08-19T17:54:00.018Z,2.65
2022-08-19T17:56:28.593Z,2.83
2022-08-19T17:58:59.816Z,2.50
2022-08-19T18:01:31.460Z,2.78
2022-08-19T18:04:10.783Z,3.38
2022-08-19T18:06:37.146Z,2.90
2022-08-19T18:09:06.586Z,2.90
2022-08-19T18:11:33.315Z,3.05
2022-08-19T18:13:59.647Z,2.70
2022-08-19T18:16:25.920Z,3.20
2022-08-19T18:18:54.550Z,2.70
2022-08-19T18:21:20.883Z,3.38
2022-08-19T18:23:47.213Z,2.65
2022-08-19T18:26:13.552Z,2.97
2022-08-19T18:28:49.702Z,2.85
2022-08-19T18:31:16.921Z,3.08
2022-08-19T18:33:44.143Z,3.20
2022-08-19T18:36:10.971Z,3.40
2022-08-19T18:38:56.162Z,3.05
2022-08-19T18:41:41.290Z,3.40
2022-08-19T18:44:26.176Z,3.50
2022-08-19T18:47:13.368Z,3.08
2022-08-19T18:49:39.712Z,3.30
2022-08-19T18:52:06.135Z,3.53
2022-08-19T18:54:33.008Z,3.38
2022-08-19T18:56:59.321Z,3.28
2022-08-19T18:59:26.452Z,3.15
2022-08-19T19:01:56.254Z,3.30
2022-08-19T19:04:24.288Z,3.05
2022-08-19T19:06:51.038Z,3.63
2022-08-19T19:09:19.593Z,3.03
2022-08-19T19:11:48.189Z,3.08
2022-08-19T19:14:38.778Z,2.85
2022-08-19T19:17:04.780Z,2.70
2022-08-19T19:19:31.241Z,2.53
2022-08-19T19:21:58.584Z,2.45
2022-08-19T19:24:30.382Z,2.85
2022-08-19T19:26:57.979Z,2.53
2022-08-19T19:29:24.247Z,2.25
2022-08-19T19:31:53.335Z,2.47
2022-08-19T19:34:29.814Z,2.53
2022-08-19T19:36:56.517Z,2.25
2022-08-19T19:39:30.596Z,2.20
2022-08-19T19:42:12.533Z,2.30
2022-08-19T19:44:48.597Z,2.03
2022-08-19T19:47:15.478Z,2.08
2022-08-19T19:50:03.755Z,1.80
2022-08-19T19:52:28.188Z,1.75
2022-08-19T19:54:56.665Z,1.90
2022-08-19T19:57:26.578Z,2.17
2022-08-19T19:59:54.110Z,2.22
2022-08-19T20:02:21.843Z,2.33
2022-08-19T20:04:48.757Z,2.72
2022-08-19T20:07:15.101Z,2.38
2022-08-19T20:09:58.701Z,3.00
2022-08-19T20:12:26.190Z,2.78
2022-08-19T20:14:52.451Z,2.65
2022-08-19T20:17:20.404Z,2.63
2022-08-19T20:19:47.658Z,2.58
2022-08-19T20:22:14.300Z,2.50
2022-08-19T20:24:42.401Z,2.25
2022-08-19T20:27:09.095Z,2.35
2022-08-19T20:29:38.488Z,2.70
2022-08-19T20:32:05.942Z,2.30
2022-08-19T20:34:33.690Z,2.45
2022-08-19T20:36:59.916Z,2.55
2022-08-19T20:39:26.178Z,2.60
2022-08-19T20:41:52.532Z,2.47
2022-08-19T20:44:19.088Z,2.70
2022-08-19T20:46:55.636Z,2.67
2022-08-19T20:49:27.126Z,2.47
2022-08-19T20:51:54.454Z,2.58
2022-08-19T20:54:20.747Z,2.83
2022-08-19T20:56:46.968Z,2.80
2022-08-19T20:59:13.245Z,2.63
2022-08-19T21:01:39.825Z,2.50
2022-08-19T21:04:06.129Z,2.55
2022-08-19T21:06:32.509Z,2.75
2022-08-19T21:08:58.748Z,2.50
2022-08-19T21:11:25.212Z,2.25
2022-08-19T21:13:51.469Z,2.28
2022-08-19T21:16:17.951Z,2.40
2022-08-19T21:18:44.272Z,2.25
2022-08-19T21:21:10.617Z,2.63
2022-08-19T21:23:36.932Z,2.08
2022-08-19T21:26:03.466Z,2.40
2022-08-19T21:28:34.355Z,2.30
2022-08-19T21:31:03.569Z,2.50
2022-08-19T21:33:32.818Z,2.10
2022-08-19T21:35:59.956Z,2.55
2022-08-19T21:38:26.343Z,2.47
2022-08-19T21:40:52.641Z,2.22
2022-08-19T21:43:18.938Z,2.30
2022-08-19T21:45:46.100Z,2.33
2022-08-19T21:48:14.292Z,2.47
2022-08-19T21:50:41.134Z,2.50
2022-08-19T21:53:07.817Z,2.17
2022-08-19T21:55:37.712Z,2.33
2022-08-19T21:58:04.379Z,2.20
2022-08-19T22:00:32.400Z,2.67
2022-08-19T22:02:58.759Z,2.50
2022-08-19T22:05:25.396Z,2.40
2022-08-19T22:07:52.523Z,2.25
2022-08-19T22:10:18.998Z,2.08
2022-08-19T22:12:51.730Z,2.13
2022-08-19T22:15:20.432Z,2.80
2022-08-19T22:17:47.397Z,2.30
2022-08-19T22:20:15.012Z,2.40
2022-08-19T22:22:48.973Z,2.30
2022-08-19T22:25:31.567Z,2.55
2022-08-19T22:28:00.550Z,2.50
2022-08-19T22:30:33.262Z,2.60
2022-08-19T22:33:01.220Z,2.40
2022-08-19T22:35:31.439Z,2.85
2022-08-19T22:37:58.948Z,2.70
2022-08-19T22:40:26.564Z,2.72
2022-08-19T22:43:11.881Z,3.22
2022-08-19T22:45:38.354Z,2.90
2022-08-19T22:48:07.878Z,2.78
2022-08-19T22:50:34.658Z,2.75
2022-08-19T22:53:02.539Z,3.25
2022-08-19T22:55:29.803Z,2.85
2022-08-19T22:57:56.268Z,3.40
2022-08-19T23:00:24.070Z,3.28
2022-08-19T23:02:52.165Z,3.17
2022-08-19T23:05:22.030Z,3.10
2022-08-19T23:07:52.199Z,3.42
2022-08-19T23:10:26.676Z,3.30
2022-08-19T23:12:54.192Z,3.28
2022-08-19T23:15:24.176Z,3.33
2022-08-19T23:17:50.574Z,2.97
2022-08-19T23:20:16.933Z,3.08
2022-08-19T23:22:44.351Z,3.20
2022-08-19T23:25:12.856Z,3.40
2022-08-19T23:27:57.612Z,3.28
2022-08-19T23:30:26.567Z,3.45
2022-08-19T23:32:54.266Z,3.20
2022-08-19T23:35:20.861Z,3.50
2022-08-19T23:37:47.953Z,3.50
2022-08-19T23:40:16.264Z,3.85
2022-08-19T23:42:44.231Z,3.63
2022-08-19T23:45:10.778Z,3.80
2022-08-19T23:47:37.154Z,3.53
2022-08-19T23:50:07.962Z,3.80
2022-08-19T23:52:34.931Z,3.55
2022-08-19T23:55:02.050Z,3.80
2022-08-19T23:57:28.387Z,3.78
2022-08-19T23:59:54.662Z,3.83
